sensor_id;sensor_type;location;lat;lon;timestamp;P1;durP1;ratioP1;P2;durP2;ratioP2
12038;SDS011;6080;48.818;9.526;2023-05-10T03:01:34;7.97;;;7.57;;
12038;SDS011;6080;48.818;9.526;2023-05-10T03:04:00;10.00;;;9.50;;
12038;SDS011;6080;48.818;9.526;2023-05-10T03:06:26;12.17;;;11.60;;
12038;SDS011;6080;48.818;9.526;2023-05-10T03:08:51;12.33;;;11.80;;
12038;SDS011;6080;48.818;9.526;2023-05-10T03:11:26;15.90;;;15.20;;
12038;SDS011;6080;48.818;9.526;2023-05-10T03:14:26;14.00;;;13.37;;
12038;SDS011;6080;48.818;9.526;2023-05-10T03:19:58;21.57;;;20.60;;
12038;SDS011;6080;48.818;9.526;2023-05-10T03:22:31;51.17;;;48.67;;
12038;SDS011;6080;48.818;9.526;2023-05-10T03:25:05;36.07;;;34.37;;
12038;SDS011;6080;48.818;9.526;2023-05-10T03:27:34;10.80;;;10.40;;
12038;SDS011;6080;48.818;9.526;2023-05-10T03:30:02;15.97;;;15.23;;
12038;SDS011;6080;48.818;9.526;2023-05-10T03:32:28;37.90;;;36.13;;
12038;SDS011;6080;48.818;9.526;2023-05-10T03:34:56;50.30;;;47.53;;
12038;SDS011;6080;48.818;9.526;2023-05-10T03:37:22;51.33;;;48.73;;
12038;SDS011;6080;48.818;9.526;2023-05-10T03:39:48;41.83;;;39.87;;
12038;SDS011;6080;48.818;9.526;2023-05-10T03:42:14;40.57;;;38.67;;
12038;SDS011;6080;48.818;9.526;2023-05-10T03:44:39;37.33;;;35.60;;
12038;SDS011;6080;48.818;9.526;2023-05-10T03:47:05;48.80;;;46.47;;
12038;SDS011;6080;48.818;9.526;2023-05-10T03:49:32;68.17;;;64.83;;
12038;SDS011;6080;48.818;9.526;2023-05-10T03:51:58;86.27;;;82.17;;
12038;SDS011;6080;48.818;9.526;2023-05-10T03:54:24;41.97;;;39.77;;
12038;SDS011;6080;48.818;9.526;2023-05-10T03:56:50;26.57;;;25.40;;
12038;SDS011;6080;48.818;9.526;2023-05-10T03:59:16;8.17;;;7.87;;
12038;SDS011;6080;48.818;9.526;2023-05-10T04:01:41;5.53;;;5.30;;
12038;SDS011;6080;48.818;9.526;2023-05-10T04:04:07;4.33;;;4.07;;
12038;SDS011;6080;48.818;9.526;2023-05-10T04:06:33;5.63;;;4.23;;
12038;SDS011;6080;48.818;9.526;2023-05-10T04:08:59;12.90;;;12.30;;
12038;SDS011;6080;48.818;9.526;2023-05-10T04:11:29;68.83;;;65.23;;
12038;SDS011;6080;48.818;9.526;2023-05-10T04:13:54;73.67;;;69.93;;
12038;SDS011;6080;48.818;9.526;2023-05-10T04:16:20;57.13;;;54.00;;
12038;SDS011;6080;48.818;9.526;2023-05-10T04:18:46;63.23;;;60.13;;
12038;SDS011;6080;48.818;9.526;2023-05-10T04:21:12;76.00;;;72.37;;
12038;SDS011;6080;48.818;9.526;2023-05-10T04:23:41;47.50;;;45.27;;
12038;SDS011;6080;48.818;9.526;2023-05-10T04:26:07;17.77;;;16.77;;
12038;SDS011;6080;48.818;9.526;2023-05-10T04:28:32;5.27;;;4.97;;
12038;SDS011;6080;48.818;9.526;2023-05-10T04:31:04;5.00;;;4.70;;
12038;SDS011;6080;48.818;9.526;2023-05-10T04:33:31;4.47;;;4.27;;
12038;SDS011;6080;48.818;9.526;2023-05-10T04:35:57;4.73;;;4.47;;
12038;SDS011;6080;48.818;9.526;2023-05-10T04:38:23;4.80;;;4.60;;
12038;SDS011;6080;48.818;9.526;2023-05-10T04:40:49;5.00;;;4.77;;
12038;SDS011;6080;48.818;9.526;2023-05-10T04:43:15;21.97;;;20.90;;
12038;SDS011;6080;48.818;9.526;2023-05-10T04:45:41;16.87;;;15.97;;
12038;SDS011;6080;48.818;9.526;2023-05-10T04:48:07;13.20;;;12.10;;
12038;SDS011;6080;48.818;9.526;2023-05-10T04:50:32;60.17;;;56.60;;
12038;SDS011;6080;48.818;9.526;2023-05-10T04:52:58;116.73;;;110.53;;
12038;SDS011;6080;48.818;9.526;2023-05-10T04:55:24;128.53;;;121.97;;
12038;SDS011;6080;48.818;9.526;2023-05-10T04:57:51;138.70;;;131.60;;
12038;SDS011;6080;48.818;9.526;2023-05-10T05:00:17;53.87;;;51.07;;
12038;SDS011;6080;48.818;9.526;2023-05-10T05:02:44;15.07;;;14.33;;
12038;SDS011;6080;48.818;9.526;2023-05-10T05:05:11;28.57;;;27.03;;
12038;SDS011;6080;48.818;9.526;2023-05-10T05:07:37;39.13;;;36.70;;
12038;SDS011;6080;48.818;9.526;2023-05-10T05:10:06;55.97;;;53.07;;
12038;SDS011;6080;48.818;9.526;2023-05-10T05:12:33;59.90;;;56.77;;
12038;SDS011;6080;48.818;9.526;2023-05-10T05:14:59;76.40;;;72.33;;
12038;SDS011;6080;48.818;9.526;2023-05-10T05:17:25;49.07;;;46.60;;
12038;SDS011;6080;48.818;9.526;2023-05-10T05:19:51;31.10;;;29.50;;
12038;SDS011;6080;48.818;9.526;2023-05-10T05:22:17;20.93;;;19.83;;
12038;SDS011;6080;48.818;9.526;2023-05-10T05:24:44;8.37;;;7.97;;
12038;SDS011;6080;48.818;9.526;2023-05-10T05:27:10;5.43;;;5.13;;
12038;SDS011;6080;48.818;9.526;2023-05-10T05:29:36;7.83;;;7.27;;
12038;SDS011;6080;48.818;9.526;2023-05-10T05:32:02;7.83;;;7.50;;
12038;SDS011;6080;48.818;9.526;2023-05-10T05:34:28;12.23;;;11.40;;
12038;SDS011;6080;48.818;9.526;2023-05-10T05:36:54;13.77;;;13.07;;
12038;SDS011;6080;48.818;9.526;2023-05-10T05:39:19;8.93;;;8.43;;
12038;SDS011;6080;48.818;9.526;2023-05-10T05:41:45;5.03;;;4.67;;
12038;SDS011;6080;48.818;9.526;2023-05-10T05:44:11;4.43;;;4.23;;
12038;SDS011;6080;48.818;9.526;2023-05-10T05:46:37;5.73;;;5.20;;
12038;SDS011;6080;48.818;9.526;2023-05-10T05:49:03;11.90;;;11.33;;
12038;SDS011;6080;48.818;9.526;2023-05-10T05:51:28;50.10;;;47.53;;
12038;SDS011;6080;48.818;9.526;2023-05-10T05:53:55;97.33;;;92.53;;
12038;SDS011;6080;48.818;9.526;2023-05-10T05:56:20;94.97;;;90.33;;
12038;SDS011;6080;48.818;9.526;2023-05-10T05:58:52;58.80;;;55.87;;
12038;SDS011;6080;48.818;9.526;2023-05-10T06:01:18;30.10;;;28.47;;
12038;SDS011;6080;48.818;9.526;2023-05-10T06:03:44;15.53;;;14.63;;
12038;SDS011;6080;48.818;9.526;2023-05-10T06:06:10;14.70;;;14.00;;
12038;SDS011;6080;48.818;9.526;2023-05-10T06:08:35;11.93;;;11.20;;
12038;SDS011;6080;48.818;9.526;2023-05-10T06:11:01;10.67;;;10.17;;
12038;SDS011;6080;48.818;9.526;2023-05-10T06:13:29;9.90;;;9.40;;
12038;SDS011;6080;48.818;9.526;2023-05-10T06:16:00;9.67;;;9.17;;
12038;SDS011;6080;48.818;9.526;2023-05-10T06:18:27;8.07;;;7.40;;
12038;SDS011;6080;48.818;9.526;2023-05-10T06:20:53;7.23;;;6.83;;
12038;SDS011;6080;48.818;9.526;2023-05-10T06:23:18;8.23;;;7.80;;
12038;SDS011;6080;48.818;9.526;2023-05-10T06:25:44;7.30;;;7.00;;
12038;SDS011;6080;48.818;9.526;2023-05-10T06:28:10;5.10;;;4.80;;
12038;SDS011;6080;48.818;9.526;2023-05-10T06:30:36;6.67;;;6.30;;
12038;SDS011;6080;48.818;9.526;2023-05-10T06:33:02;8.73;;;8.33;;
12038;SDS011;6080;48.818;9.526;2023-05-10T06:35:28;7.73;;;7.33;;
12038;SDS011;6080;48.818;9.526;2023-05-10T06:37:54;5.87;;;5.67;;
12038;SDS011;6080;48.818;9.526;2023-05-10T06:40:20;7.07;;;6.70;;
12038;SDS011;6080;48.818;9.526;2023-05-10T06:42:46;6.53;;;5.63;;
12038;SDS011;6080;48.818;9.526;2023-05-10T06:45:13;6.63;;;6.33;;
12038;SDS011;6080;48.818;9.526;2023-05-10T06:47:40;22.60;;;21.60;;
12038;SDS011;6080;48.818;9.526;2023-05-10T06:50:07;26.10;;;24.77;;
12038;SDS011;6080;48.818;9.526;2023-05-10T06:52:33;20.73;;;19.67;;
12038;SDS011;6080;48.818;9.526;2023-05-10T06:54:59;21.03;;;20.03;;
12038;SDS011;6080;48.818;9.526;2023-05-10T06:57:25;24.53;;;23.27;;
12038;SDS011;6080;48.818;9.526;2023-05-10T06:59:51;26.40;;;24.83;;
12038;SDS011;6080;48.818;9.526;2023-05-10T07:02:17;24.27;;;23.17;;
12038;SDS011;6080;48.818;9.526;2023-05-10T07:04:43;26.40;;;25.07;;
12038;SDS011;6080;48.818;9.526;2023-05-10T07:07:09;22.63;;;21.50;;
12038;SDS011;6080;48.818;9.526;2023-05-10T07:09:35;19.77;;;18.67;;
12038;SDS011;6080;48.818;9.526;2023-05-10T07:12:01;26.20;;;24.70;;
12038;SDS011;6080;48.818;9.526;2023-05-10T07:14:27;30.63;;;29.23;;
12038;SDS011;6080;48.818;9.526;2023-05-10T07:16:53;30.80;;;29.40;;
12038;SDS011;6080;48.818;9.526;2023-05-10T07:19:18;13.90;;;12.80;;
12038;SDS011;6080;48.818;9.526;2023-05-10T07:21:45;8.87;;;8.47;;
12038;SDS011;6080;48.818;9.526;2023-05-10T07:24:10;10.80;;;10.30;;
12038;SDS011;6080;48.818;9.526;2023-05-10T07:26:36;30.83;;;29.33;;
12038;SDS011;6080;48.818;9.526;2023-05-10T07:29:02;18.93;;;17.97;;
12038;SDS011;6080;48.818;9.526;2023-05-10T07:31:28;6.63;;;6.20;;
12038;SDS011;6080;48.818;9.526;2023-05-10T07:33:53;9.07;;;8.43;;
12038;SDS011;6080;48.818;9.526;2023-05-10T07:36:19;12.73;;;12.07;;
12038;SDS011;6080;48.818;9.526;2023-05-10T07:38:45;27.17;;;25.93;;
12038;SDS011;6080;48.818;9.526;2023-05-10T07:41:11;22.33;;;21.33;;
12038;SDS011;6080;48.818;9.526;2023-05-10T07:43:37;21.63;;;20.20;;
12038;SDS011;6080;48.818;9.526;2023-05-10T07:46:03;22.97;;;21.93;;
12038;SDS011;6080;48.818;9.526;2023-05-10T07:48:29;27.47;;;26.07;;
12038;SDS011;6080;48.818;9.526;2023-05-10T07:50:54;45.13;;;42.97;;
12038;SDS011;6080;48.818;9.526;2023-05-10T07:53:20;37.37;;;35.63;;
12038;SDS011;6080;48.818;9.526;2023-05-10T07:55:50;25.43;;;24.10;;
12038;SDS011;6080;48.818;9.526;2023-05-10T07:58:16;14.87;;;13.90;;
12038;SDS011;6080;48.818;9.526;2023-05-10T08:00:43;10.83;;;10.33;;
12038;SDS011;6080;48.818;9.526;2023-05-10T08:03:08;9.93;;;9.23;;
12038;SDS011;6080;48.818;9.526;2023-05-10T08:05:34;7.17;;;6.87;;
12038;SDS011;6080;48.818;9.526;2023-05-10T08:08:00;7.23;;;6.80;;
12038;SDS011;6080;48.818;9.526;2023-05-10T08:10:26;4.83;;;4.73;;
12038;SDS011;6080;48.818;9.526;2023-05-10T08:12:51;4.03;;;3.93;;
12038;SDS011;6080;48.818;9.526;2023-05-10T08:15:17;4.70;;;4.50;;
12038;SDS011;6080;48.818;9.526;2023-05-10T08:17:43;4.07;;;3.87;;
12038;SDS011;6080;48.818;9.526;2023-05-10T08:20:09;3.63;;;3.53;;
12038;SDS011;6080;48.818;9.526;2023-05-10T08:22:34;4.10;;;3.57;;
12038;SDS011;6080;48.818;9.526;2023-05-10T08:25:00;3.80;;;3.60;;
12038;SDS011;6080;48.818;9.526;2023-05-10T08:27:26;4.03;;;3.87;;
12038;SDS011;6080;48.818;9.526;2023-05-10T08:29:52;3.87;;;3.67;;
12038;SDS011;6080;48.818;9.526;2023-05-10T08:32:17;3.50;;;3.40;;
12038;SDS011;6080;48.818;9.526;2023-05-10T08:34:43;5.20;;;5.00;;
12038;SDS011;6080;48.818;9.526;2023-05-10T08:37:09;9.03;;;8.63;;
12038;SDS011;6080;48.818;9.526;2023-05-10T08:39:37;9.17;;;8.67;;
12038;SDS011;6080;48.818;9.526;2023-05-10T08:42:04;9.33;;;8.93;;
12038;SDS011;6080;48.818;9.526;2023-05-10T08:44:34;7.00;;;6.60;;
12038;SDS011;6080;48.818;9.526;2023-05-10T08:47:05;8.43;;;7.93;;
12038;SDS011;6080;48.818;9.526;2023-05-10T08:49:34;8.97;;;8.27;;
12038;SDS011;6080;48.818;9.526;2023-05-10T08:52:02;5.53;;;5.23;;
12038;SDS011;6080;48.818;9.526;2023-05-10T08:54:29;4.50;;;4.20;;
12038;SDS011;6080;48.818;9.526;2023-05-10T08:56:56;8.20;;;7.80;;
12038;SDS011;6080;48.818;9.526;2023-05-10T08:59:22;3.80;;;3.60;;
12038;SDS011;6080;48.818;9.526;2023-05-10T09:01:48;4.10;;;3.93;;
12038;SDS011;6080;48.818;9.526;2023-05-10T09:04:15;3.70;;;3.50;;
12038;SDS011;6080;48.818;9.526;2023-05-10T09:06:41;4.47;;;4.17;;
12038;SDS011;6080;48.818;9.526;2023-05-10T09:09:07;3.63;;;3.33;;
12038;SDS011;6080;48.818;9.526;2023-05-10T09:11:33;3.27;;;3.17;;
12038;SDS011;6080;48.818;9.526;2023-05-10T09:13:59;3.93;;;3.63;;
12038;SDS011;6080;48.818;9.526;2023-05-10T09:16:26;3.80;;;3.60;;
12038;SDS011;6080;48.818;9.526;2023-05-10T09:18:52;3.53;;;3.43;;
12038;SDS011;6080;48.818;9.526;2023-05-10T09:21:19;7.13;;;3.77;;
12038;SDS011;6080;48.818;9.526;2023-05-10T09:23:45;5.27;;;5.07;;
12038;SDS011;6080;48.818;9.526;2023-05-10T09:26:11;4.43;;;4.23;;
12038;SDS011;6080;48.818;9.526;2023-05-10T09:28:57;4.13;;;3.83;;
12038;SDS011;6080;48.818;9.526;2023-05-10T09:31:24;4.67;;;4.50;;
12038;SDS011;6080;48.818;9.526;2023-05-10T09:34:07;11.20;;;10.73;;
12038;SDS011;6080;48.818;9.526;2023-05-10T09:36:33;5.30;;;5.00;;
12038;SDS011;6080;48.818;9.526;2023-05-10T09:38:59;5.17;;;4.87;;
12038;SDS011;6080;48.818;9.526;2023-05-10T09:41:25;9.77;;;9.17;;
12038;SDS011;6080;48.818;9.526;2023-05-10T09:43:54;12.30;;;11.80;;
12038;SDS011;6080;48.818;9.526;2023-05-10T09:46:21;11.40;;;10.77;;
12038;SDS011;6080;48.818;9.526;2023-05-10T09:48:47;10.17;;;9.23;;
12038;SDS011;6080;48.818;9.526;2023-05-10T09:51:24;9.33;;;9.03;;
12038;SDS011;6080;48.818;9.526;2023-05-10T09:54:11;7.00;;;6.70;;
12038;SDS011;6080;48.818;9.526;2023-05-10T09:56:38;5.90;;;5.60;;
12038;SDS011;6080;48.818;9.526;2023-05-10T09:59:06;7.13;;;6.90;;
12038;SDS011;6080;48.818;9.526;2023-05-10T10:01:36;46.87;;;44.77;;
12038;SDS011;6080;48.818;9.526;2023-05-10T10:04:03;49.73;;;47.27;;
12038;SDS011;6080;48.818;9.526;2023-05-10T10:06:34;64.97;;;61.97;;
12038;SDS011;6080;48.818;9.526;2023-05-10T10:09:04;73.17;;;69.67;;
12038;SDS011;6080;48.818;9.526;2023-05-10T10:11:31;33.97;;;32.33;;
12038;SDS011;6080;48.818;9.526;2023-05-10T10:13:59;36.93;;;35.20;;
12038;SDS011;6080;48.818;9.526;2023-05-10T10:16:25;64.03;;;61.07;;
12038;SDS011;6080;48.818;9.526;2023-05-10T10:18:55;71.00;;;67.43;;
12038;SDS011;6080;48.818;9.526;2023-05-10T10:21:22;77.80;;;74.03;;
12038;SDS011;6080;48.818;9.526;2023-05-10T10:23:49;58.77;;;56.03;;
12038;SDS011;6080;48.818;9.526;2023-05-10T10:26:15;67.43;;;64.23;;
12038;SDS011;6080;48.818;9.526;2023-05-10T10:28:49;13.47;;;12.63;;
12038;SDS011;6080;48.818;9.526;2023-05-10T10:31:36;13.30;;;12.70;;
12038;SDS011;6080;48.818;9.526;2023-05-10T10:34:08;6.73;;;6.53;;
12038;SDS011;6080;48.818;9.526;2023-05-10T10:36:45;10.20;;;9.60;;
12038;SDS011;6080;48.818;9.526;2023-05-10T10:39:11;12.40;;;11.80;;
12038;SDS011;6080;48.818;9.526;2023-05-10T10:41:39;11.30;;;10.53;;
12038;SDS011;6080;48.818;9.526;2023-05-10T10:47:05;12.73;;;12.20;;
12038;SDS011;6080;48.818;9.526;2023-05-10T10:49:37;31.73;;;30.00;;
12038;SDS011;6080;48.818;9.526;2023-05-10T10:54:52;58.90;;;56.17;;
12038;SDS011;6080;48.818;9.526;2023-05-10T10:57:28;70.07;;;66.50;;
12038;SDS011;6080;48.818;9.526;2023-05-10T11:02:46;70.47;;;67.00;;
12038;SDS011;6080;48.818;9.526;2023-05-10T11:07:58;6.00;;;3.73;;
12038;SDS011;6080;48.818;9.526;2023-05-10T11:10:26;8.03;;;7.60;;
12038;SDS011;6080;48.818;9.526;2023-05-10T11:13:02;6.57;;;6.37;;
12038;SDS011;6080;48.818;9.526;2023-05-10T11:15:33;6.77;;;6.47;;
12038;SDS011;6080;48.818;9.526;2023-05-10T11:17:59;6.67;;;6.27;;
12038;SDS011;6080;48.818;9.526;2023-05-10T11:20:41;13.40;;;12.67;;
12038;SDS011;6080;48.818;9.526;2023-05-10T11:23:11;10.80;;;10.27;;
12038;SDS011;6080;48.818;9.526;2023-05-10T11:25:44;21.50;;;20.53;;
12038;SDS011;6080;48.818;9.526;2023-05-10T11:28:11;60.10;;;57.20;;
12038;SDS011;6080;48.818;9.526;2023-05-10T11:30:41;48.17;;;45.87;;
12038;SDS011;6080;48.818;9.526;2023-05-10T11:33:08;61.00;;;58.13;;
12038;SDS011;6080;48.818;9.526;2023-05-10T11:35:38;54.23;;;51.63;;
12038;SDS011;6080;48.818;9.526;2023-05-10T11:38:05;66.60;;;63.43;;
12038;SDS011;6080;48.818;9.526;2023-05-10T11:40:35;13.00;;;12.33;;
12038;SDS011;6080;48.818;9.526;2023-05-10T11:43:03;12.63;;;12.10;;
12038;SDS011;6080;48.818;9.526;2023-05-10T11:45:32;11.20;;;10.70;;
12038;SDS011;6080;48.818;9.526;2023-05-10T11:47:59;8.30;;;7.90;;
12038;SDS011;6080;48.818;9.526;2023-05-10T11:50:25;16.47;;;15.67;;
12038;SDS011;6080;48.818;9.526;2023-05-10T11:52:59;18.57;;;17.67;;
12038;SDS011;6080;48.818;9.526;2023-05-10T11:55:25;15.77;;;15.03;;
12038;SDS011;6080;48.818;9.526;2023-05-10T11:57:51;17.73;;;16.93;;
12038;SDS011;6080;48.818;9.526;2023-05-10T12:00:18;21.63;;;20.50;;
12038;SDS011;6080;48.818;9.526;2023-05-10T12:02:44;22.13;;;21.03;;
12038;SDS011;6080;48.818;9.526;2023-05-10T12:05:10;16.30;;;15.33;;
12038;SDS011;6080;48.818;9.526;2023-05-10T12:07:36;8.73;;;8.43;;
12038;SDS011;6080;48.818;9.526;2023-05-10T12:10:03;9.80;;;9.10;;
12038;SDS011;6080;48.818;9.526;2023-05-10T12:12:37;8.07;;;7.57;;
12038;SDS011;6080;48.818;9.526;2023-05-10T12:15:17;12.07;;;11.20;;
12038;SDS011;6080;48.818;9.526;2023-05-10T12:17:47;11.17;;;10.67;;
12038;SDS011;6080;48.818;9.526;2023-05-10T12:20:20;10.90;;;10.40;;
12038;SDS011;6080;48.818;9.526;2023-05-10T12:22:51;9.87;;;9.37;;
12038;SDS011;6080;48.818;9.526;2023-05-10T12:25:18;14.67;;;14.00;;
12038;SDS011;6080;48.818;9.526;2023-05-10T12:27:53;14.53;;;13.73;;
12038;SDS011;6080;48.818;9.526;2023-05-10T12:30:27;16.70;;;15.90;;
12038;SDS011;6080;48.818;9.526;2023-05-10T12:35:46;33.67;;;32.10;;
12038;SDS011;6080;48.818;9.526;2023-05-10T12:40:52;7.83;;;7.23;;
12038;SDS011;6080;48.818;9.526;2023-05-10T12:43:17;8.63;;;8.23;;
12038;SDS011;6080;48.818;9.526;2023-05-10T12:45:43;14.10;;;13.37;;
12038;SDS011;6080;48.818;9.526;2023-05-10T12:48:13;10.77;;;10.27;;
12038;SDS011;6080;48.818;9.526;2023-05-10T12:50:39;9.93;;;9.50;;
12038;SDS011;6080;48.818;9.526;2023-05-10T12:53:04;24.17;;;23.03;;
12038;SDS011;6080;48.818;9.526;2023-05-10T12:55:30;47.17;;;44.97;;
12038;SDS011;6080;48.818;9.526;2023-05-10T12:57:56;46.07;;;43.87;;
12038;SDS011;6080;48.818;9.526;2023-05-10T13:00:24;47.87;;;45.67;;
12038;SDS011;6080;48.818;9.526;2023-05-10T13:02:50;44.90;;;42.60;;
12038;SDS011;6080;48.818;9.526;2023-05-10T13:05:16;33.40;;;31.73;;
12038;SDS011;6080;48.818;9.526;2023-05-10T13:07:41;20.57;;;19.37;;
12038;SDS011;6080;48.818;9.526;2023-05-10T13:10:09;11.23;;;10.43;;
12038;SDS011;6080;48.818;9.526;2023-05-10T13:12:35;5.93;;;5.63;;
12038;SDS011;6080;48.818;9.526;2023-05-10T13:15:02;29.20;;;27.87;;
12038;SDS011;6080;48.818;9.526;2023-05-10T13:17:28;43.47;;;41.20;;
12038;SDS011;6080;48.818;9.526;2023-05-10T13:19:54;29.33;;;27.70;;
12038;SDS011;6080;48.818;9.526;2023-05-10T13:22:20;43.33;;;40.90;;
12038;SDS011;6080;48.818;9.526;2023-05-10T13:24:46;30.63;;;29.07;;
12038;SDS011;6080;48.818;9.526;2023-05-10T13:27:11;51.87;;;49.20;;
12038;SDS011;6080;48.818;9.526;2023-05-10T13:29:37;53.73;;;50.83;;
12038;SDS011;6080;48.818;9.526;2023-05-10T13:32:03;21.93;;;20.60;;
12038;SDS011;6080;48.818;9.526;2023-05-10T13:34:29;9.93;;;9.23;;
12038;SDS011;6080;48.818;9.526;2023-05-10T13:36:54;9.90;;;9.40;;
12038;SDS011;6080;48.818;9.526;2023-05-10T13:39:21;11.23;;;10.73;;
12038;SDS011;6080;48.818;9.526;2023-05-10T13:41:47;6.83;;;6.43;;
12038;SDS011;6080;48.818;9.526;2023-05-10T13:44:13;5.03;;;4.73;;
12038;SDS011;6080;48.818;9.526;2023-05-10T13:46:40;5.73;;;5.40;;
12038;SDS011;6080;48.818;9.526;2023-05-10T13:49:08;8.37;;;7.83;;
12038;SDS011;6080;48.818;9.526;2023-05-10T13:51:34;15.50;;;14.77;;
12038;SDS011;6080;48.818;9.526;2023-05-10T13:54:01;21.20;;;20.03;;
12038;SDS011;6080;48.818;9.526;2023-05-10T13:56:27;8.80;;;8.30;;
12038;SDS011;6080;48.818;9.526;2023-05-10T13:58:53;7.57;;;7.07;;
12038;SDS011;6080;48.818;9.526;2023-05-10T14:01:19;7.97;;;7.37;;
12038;SDS011;6080;48.818;9.526;2023-05-10T14:03:45;6.00;;;5.70;;
12038;SDS011;6080;48.818;9.526;2023-05-10T14:06:10;5.10;;;4.83;;
12038;SDS011;6080;48.818;9.526;2023-05-10T14:08:36;6.77;;;6.37;;
12038;SDS011;6080;48.818;9.526;2023-05-10T14:11:02;13.60;;;13.00;;
12038;SDS011;6080;48.818;9.526;2023-05-10T14:13:28;27.80;;;26.40;;
12038;SDS011;6080;48.818;9.526;2023-05-10T14:15:54;25.60;;;24.40;;
12038;SDS011;6080;48.818;9.526;2023-05-10T14:18:20;38.43;;;36.63;;
12038;SDS011;6080;48.818;9.526;2023-05-10T14:20:46;12.47;;;11.77;;
12038;SDS011;6080;48.818;9.526;2023-05-10T14:23:12;18.43;;;17.37;;
12038;SDS011;6080;48.818;9.526;2023-05-10T14:25:39;25.67;;;24.10;;
12038;SDS011;6080;48.818;9.526;2023-05-10T14:28:05;12.43;;;11.30;;
12038;SDS011;6080;48.818;9.526;2023-05-10T14:30:31;9.87;;;9.33;;
12038;SDS011;6080;48.818;9.526;2023-05-10T14:32:59;23.27;;;21.97;;
12038;SDS011;6080;48.818;9.526;2023-05-10T14:35:27;24.97;;;23.50;;
12038;SDS011;6080;48.818;9.526;2023-05-10T14:37:53;10.83;;;10.23;;
12038;SDS011;6080;48.818;9.526;2023-05-10T14:40:19;17.67;;;16.77;;
12038;SDS011;6080;48.818;9.526;2023-05-10T14:42:46;10.87;;;10.20;;
12038;SDS011;6080;48.818;9.526;2023-05-10T14:45:12;6.37;;;5.90;;
12038;SDS011;6080;48.818;9.526;2023-05-10T14:47:38;5.00;;;4.70;;
12038;SDS011;6080;48.818;9.526;2023-05-10T14:50:03;5.77;;;5.47;;
12038;SDS011;6080;48.818;9.526;2023-05-10T14:52:30;7.20;;;6.80;;
12038;SDS011;6080;48.818;9.526;2023-05-10T14:54:56;6.07;;;5.67;;
12038;SDS011;6080;48.818;9.526;2023-05-10T14:57:24;5.27;;;4.77;;
12038;SDS011;6080;48.818;9.526;2023-05-10T14:59:49;8.50;;;8.00;;
12038;SDS011;6080;48.818;9.526;2023-05-10T15:02:15;6.43;;;6.03;;
12038;SDS011;6080;48.818;9.526;2023-05-10T15:04:41;10.73;;;10.13;;
12038;SDS011;6080;48.818;9.526;2023-05-10T15:07:07;10.60;;;9.87;;
12038;SDS011;6080;48.818;9.526;2023-05-10T15:09:33;11.67;;;11.07;;
12038;SDS011;6080;48.818;9.526;2023-05-10T15:11:58;23.63;;;22.13;;
12038;SDS011;6080;48.818;9.526;2023-05-10T15:14:24;25.03;;;23.73;;
12038;SDS011;6080;48.818;9.526;2023-05-10T15:16:50;21.00;;;19.93;;
12038;SDS011;6080;48.818;9.526;2023-05-10T15:19:16;8.23;;;7.53;;
12038;SDS011;6080;48.818;9.526;2023-05-10T15:21:42;9.60;;;8.70;;
12038;SDS011;6080;48.818;9.526;2023-05-10T15:24:09;12.20;;;11.60;;
12038;SDS011;6080;48.818;9.526;2023-05-10T15:26:35;13.93;;;13.23;;
12038;SDS011;6080;48.818;9.526;2023-05-10T15:29:01;8.63;;;8.17;;
12038;SDS011;6080;48.818;9.526;2023-05-10T15:31:27;9.67;;;9.10;;
12038;SDS011;6080;48.818;9.526;2023-05-10T15:33:59;12.53;;;11.67;;
12038;SDS011;6080;48.818;9.526;2023-05-10T15:36:25;24.93;;;23.53;;
12038;SDS011;6080;48.818;9.526;2023-05-10T15:38:51;26.73;;;25.47;;
12038;SDS011;6080;48.818;9.526;2023-05-10T15:41:18;26.03;;;24.73;;
12038;SDS011;6080;48.818;9.526;2023-05-10T15:43:43;20.23;;;19.23;;
12038;SDS011;6080;48.818;9.526;2023-05-10T15:46:09;12.60;;;11.80;;
12038;SDS011;6080;48.818;9.526;2023-05-10T15:48:35;13.03;;;12.43;;
12038;SDS011;6080;48.818;9.526;2023-05-10T15:51:00;9.77;;;9.37;;
12038;SDS011;6080;48.818;9.526;2023-05-10T15:53:26;11.17;;;10.43;;
12038;SDS011;6080;48.818;9.526;2023-05-10T15:55:52;12.47;;;11.67;;
12038;SDS011;6080;48.818;9.526;2023-05-10T15:58:19;19.10;;;18.20;;
12038;SDS011;6080;48.818;9.526;2023-05-10T16:00:45;11.37;;;10.63;;
12038;SDS011;6080;48.818;9.526;2023-05-10T16:03:10;10.50;;;9.80;;
12038;SDS011;6080;48.818;9.526;2023-05-10T16:05:36;9.73;;;9.23;;
12038;SDS011;6080;48.818;9.526;2023-05-10T16:08:02;11.93;;;11.17;;
12038;SDS011;6080;48.818;9.526;2023-05-10T16:10:30;9.57;;;9.10;;
12038;SDS011;6080;48.818;9.526;2023-05-10T16:12:57;9.83;;;9.33;;
12038;SDS011;6080;48.818;9.526;2023-05-10T16:15:23;10.30;;;9.77;;
12038;SDS011;6080;48.818;9.526;2023-05-10T16:17:48;22.83;;;21.63;;
12038;SDS011;6080;48.818;9.526;2023-05-10T16:20:14;42.80;;;40.63;;
12038;SDS011;6080;48.818;9.526;2023-05-10T16:22:40;56.57;;;53.73;;
12038;SDS011;6080;48.818;9.526;2023-05-10T16:25:08;50.93;;;48.03;;
12038;SDS011;6080;48.818;9.526;2023-05-10T16:27:35;55.17;;;52.47;;
12038;SDS011;6080;48.818;9.526;2023-05-10T16:30:02;37.73;;;35.43;;
12038;SDS011;6080;48.818;9.526;2023-05-10T16:32:28;25.37;;;23.87;;
12038;SDS011;6080;48.818;9.526;2023-05-10T16:34:54;39.23;;;37.37;;
12038;SDS011;6080;48.818;9.526;2023-05-10T16:37:19;22.67;;;21.53;;
12038;SDS011;6080;48.818;9.526;2023-05-10T16:39:45;42.20;;;40.10;;
12038;SDS011;6080;48.818;9.526;2023-05-10T16:42:11;52.97;;;50.30;;
12038;SDS011;6080;48.818;9.526;2023-05-10T16:44:37;47.20;;;44.80;;
12038;SDS011;6080;48.818;9.526;2023-05-10T16:47:03;51.53;;;49.03;;
12038;SDS011;6080;48.818;9.526;2023-05-10T16:49:29;46.73;;;44.23;;
12038;SDS011;6080;48.818;9.526;2023-05-10T16:51:54;54.90;;;52.27;;
12038;SDS011;6080;48.818;9.526;2023-05-10T16:54:21;51.53;;;48.97;;
12038;SDS011;6080;48.818;9.526;2023-05-10T16:56:47;51.00;;;48.37;;
12038;SDS011;6080;48.818;9.526;2023-05-10T16:59:13;53.03;;;50.37;;
12038;SDS011;6080;48.818;9.526;2023-05-10T17:01:39;52.40;;;49.83;;
12038;SDS011;6080;48.818;9.526;2023-05-10T17:04:04;55.53;;;52.93;;
12038;SDS011;6080;48.818;9.526;2023-05-10T17:06:30;31.53;;;29.93;;
12038;SDS011;6080;48.818;9.526;2023-05-10T17:08:57;42.73;;;40.23;;
12038;SDS011;6080;48.818;9.526;2023-05-10T17:11:22;52.77;;;49.87;;
12038;SDS011;6080;48.818;9.526;2023-05-10T17:13:49;54.23;;;51.67;;
12038;SDS011;6080;48.818;9.526;2023-05-10T17:16:16;61.43;;;58.53;;
12038;SDS011;6080;48.818;9.526;2023-05-10T17:18:43;60.20;;;57.27;;
12038;SDS011;6080;48.818;9.526;2023-05-10T17:21:09;60.63;;;57.70;;
12038;SDS011;6080;48.818;9.526;2023-05-10T17:23:36;47.73;;;45.47;;
12038;SDS011;6080;48.818;9.526;2023-05-10T17:26:05;29.57;;;28.23;;
12038;SDS011;6080;48.818;9.526;2023-05-10T17:28:31;32.37;;;30.83;;
12038;SDS011;6080;48.818;9.526;2023-05-10T17:30:57;36.77;;;34.90;;
12038;SDS011;6080;48.818;9.526;2023-05-10T17:33:24;26.30;;;25.10;;
12038;SDS011;6080;48.818;9.526;2023-05-10T17:35:50;29.37;;;27.87;;
12038;SDS011;6080;48.818;9.526;2023-05-10T17:38:16;24.20;;;23.07;;
12038;SDS011;6080;48.818;9.526;2023-05-10T17:40:42;23.37;;;21.97;;
12038;SDS011;6080;48.818;9.526;2023-05-10T17:43:08;23.57;;;22.47;;
12038;SDS011;6080;48.818;9.526;2023-05-10T17:45:34;23.53;;;22.43;;
12038;SDS011;6080;48.818;9.526;2023-05-10T17:48:00;16.53;;;15.50;;
12038;SDS011;6080;48.818;9.526;2023-05-10T17:50:26;17.70;;;16.90;;
12038;SDS011;6080;48.818;9.526;2023-05-10T17:52:52;29.13;;;27.63;;
12038;SDS011;6080;48.818;9.526;2023-05-10T17:55:19;9.97;;;9.37;;
12038;SDS011;6080;48.818;9.526;2023-05-10T17:57:45;4.27;;;4.07;;
12038;SDS011;6080;48.818;9.526;2023-05-10T18:00:12;5.13;;;4.73;;
12038;SDS011;6080;48.818;9.526;2023-05-10T18:02:39;10.37;;;9.77;;